sensor_id;sensor_type;location;lat;lon;timestamp;P1;durP1;ratioP1;P2;durP2;ratioP2
55409;SDS011;41279;43.546;16.426;2023-03-21T06:57:48;10.40;;;8.13;;
55409;SDS011;41279;43.546;16.426;2023-03-21T07:00:21;13.68;;;10.30;;
55409;SDS011;41279;43.546;16.426;2023-03-21T07:02:47;17.05;;;10.38;;
55409;SDS011;41279;43.546;16.426;2023-03-21T07:05:13;14.95;;;10.18;;
55409;SDS011;41279;43.546;16.426;2023-03-21T07:07:40;14.35;;;10.30;;
55409;SDS011;41279;43.546;16.426;2023-03-21T07:10:05;16.25;;;10.07;;
55409;SDS011;41279;43.546;16.426;2023-03-21T07:12:32;9.70;;;7.97;;
55409;SDS011;41279;43.546;16.426;2023-03-21T07:14:59;12.40;;;8.63;;
55409;SDS011;41279;43.546;16.426;2023-03-21T07:17:25;10.90;;;8.40;;
55409;SDS011;41279;43.546;16.426;2023-03-21T07:19:51;12.77;;;8.63;;
55409;SDS011;41279;43.546;16.426;2023-03-21T07:22:17;13.60;;;9.45;;
55409;SDS011;41279;43.546;16.426;2023-03-21T07:24:42;12.70;;;8.18;;
55409;SDS011;41279;43.546;16.426;2023-03-21T07:27:08;12.10;;;8.25;;
55409;SDS011;41279;43.546;16.426;2023-03-21T07:29:33;12.73;;;8.48;;
55409;SDS011;41279;43.546;16.426;2023-03-21T07:31:59;14.15;;;9.07;;
55409;SDS011;41279;43.546;16.426;2023-03-21T07:34:25;11.90;;;7.93;;
55409;SDS011;41279;43.546;16.426;2023-03-21T07:36:55;10.55;;;7.18;;
55409;SDS011;41279;43.546;16.426;2023-03-21T07:39:21;13.57;;;7.40;;
55409;SDS011;41279;43.546;16.426;2023-03-21T07:41:47;10.45;;;7.65;;
55409;SDS011;41279;43.546;16.426;2023-03-21T07:44:13;10.25;;;7.50;;
55409;SDS011;41279;43.546;16.426;2023-03-21T07:46:39;11.27;;;7.80;;
55409;SDS011;41279;43.546;16.426;2023-03-21T07:49:04;14.30;;;8.40;;
55409;SDS011;41279;43.546;16.426;2023-03-21T07:51:30;14.05;;;8.85;;
55409;SDS011;41279;43.546;16.426;2023-03-21T07:53:56;11.35;;;8.68;;
55409;SDS011;41279;43.546;16.426;2023-03-21T07:56:21;12.43;;;9.05;;
55409;SDS011;41279;43.546;16.426;2023-03-21T07:58:46;13.00;;;8.50;;
55409;SDS011;41279;43.546;16.426;2023-03-21T08:01:12;10.52;;;8.35;;
55409;SDS011;41279;43.546;16.426;2023-03-21T08:03:37;10.93;;;8.32;;
55409;SDS011;41279;43.546;16.426;2023-03-21T08:06:03;12.38;;;8.90;;
55409;SDS011;41279;43.546;16.426;2023-03-21T08:08:29;10.68;;;8.52;;
55409;SDS011;41279;43.546;16.426;2023-03-21T08:10:55;11.80;;;8.38;;
55409;SDS011;41279;43.546;16.426;2023-03-21T08:13:21;11.48;;;8.35;;
55409;SDS011;41279;43.546;16.426;2023-03-21T08:15:47;12.90;;;7.93;;
55409;SDS011;41279;43.546;16.426;2023-03-21T08:18:12;11.18;;;7.78;;
55409;SDS011;41279;43.546;16.426;2023-03-21T08:20:38;12.88;;;8.38;;
55409;SDS011;41279;43.546;16.426;2023-03-21T08:23:03;12.15;;;8.48;;
55409;SDS011;41279;43.546;16.426;2023-03-21T08:25:28;11.48;;;8.88;;
55409;SDS011;41279;43.546;16.426;2023-03-21T08:27:55;11.18;;;8.60;;
55409;SDS011;41279;43.546;16.426;2023-03-21T08:30:21;10.68;;;7.95;;
55409;SDS011;41279;43.546;16.426;2023-03-21T08:32:50;12.30;;;8.48;;
55409;SDS011;41279;43.546;16.426;2023-03-21T08:35:21;10.48;;;8.20;;
55409;SDS011;41279;43.546;16.426;2023-03-21T08:37:47;11.95;;;9.18;;
55409;SDS011;41279;43.546;16.426;2023-03-21T08:40:14;9.82;;;8.23;;
55409;SDS011;41279;43.546;16.426;2023-03-21T08:42:41;11.75;;;8.35;;
55409;SDS011;41279;43.546;16.426;2023-03-21T08:45:08;9.82;;;8.80;;
55409;SDS011;41279;43.546;16.426;2023-03-21T08:47:35;11.65;;;9.38;;
55409;SDS011;41279;43.546;16.426;2023-03-21T08:50:00;11.30;;;7.55;;
55409;SDS011;41279;43.546;16.426;2023-03-21T08:52:26;12.63;;;8.75;;
55409;SDS011;41279;43.546;16.426;2023-03-21T08:54:52;10.57;;;7.45;;
55409;SDS011;41279;43.546;16.426;2023-03-21T08:57:18;10.85;;;8.00;;
55409;SDS011;41279;43.546;16.426;2023-03-21T08:59:44;9.13;;;7.55;;
55409;SDS011;41279;43.546;16.426;2023-03-21T09:02:12;11.63;;;8.05;;
55409;SDS011;41279;43.546;16.426;2023-03-21T09:04:39;10.57;;;8.05;;
55409;SDS011;41279;43.546;16.426;2023-03-21T09:07:06;11.25;;;7.35;;
55409;SDS011;41279;43.546;16.426;2023-03-21T09:09:31;12.00;;;7.85;;
55409;SDS011;41279;43.546;16.426;2023-03-21T09:11:57;10.95;;;7.60;;
55409;SDS011;41279;43.546;16.426;2023-03-21T09:14:23;10.55;;;7.10;;
55409;SDS011;41279;43.546;16.426;2023-03-21T09:16:48;11.55;;;7.80;;
55409;SDS011;41279;43.546;16.426;2023-03-21T09:19:14;11.80;;;7.43;;
55409;SDS011;41279;43.546;16.426;2023-03-21T09:21:42;8.90;;;6.68;;
55409;SDS011;41279;43.546;16.426;2023-03-21T09:24:08;10.00;;;7.03;;
55409;SDS011;41279;43.546;16.426;2023-03-21T09:26:36;9.20;;;6.75;;
55409;SDS011;41279;43.546;16.426;2023-03-21T09:29:02;8.95;;;7.18;;
55409;SDS011;41279;43.546;16.426;2023-03-21T09:31:30;12.18;;;6.85;;
55409;SDS011;41279;43.546;16.426;2023-03-21T09:33:56;11.30;;;7.57;;
55409;SDS011;41279;43.546;16.426;2023-03-21T09:36:22;8.88;;;6.72;;
55409;SDS011;41279;43.546;16.426;2023-03-21T09:38:51;10.90;;;7.22;;
55409;SDS011;41279;43.546;16.426;2023-03-21T09:46:39;8.65;;;6.63;;
55409;SDS011;41279;43.546;16.426;2023-03-21T09:49:10;8.93;;;6.82;;
55409;SDS011;41279;43.546;16.426;2023-03-21T09:51:43;9.60;;;7.53;;
55409;SDS011;41279;43.546;16.426;2023-03-21T09:54:36;9.60;;;7.00;;
55409;SDS011;41279;43.546;16.426;2023-03-21T09:57:10;9.48;;;7.15;;
55409;SDS011;41279;43.546;16.426;2023-03-21T09:59:47;10.90;;;8.63;;
55409;SDS011;41279;43.546;16.426;2023-03-21T10:07:45;11.73;;;7.15;;
55409;SDS011;41279;43.546;16.426;2023-03-21T10:10:24;9.40;;;7.55;;
55409;SDS011;41279;43.546;16.426;2023-03-21T10:12:54;10.40;;;7.10;;
55409;SDS011;41279;43.546;16.426;2023-03-21T10:15:21;9.82;;;7.47;;
55409;SDS011;41279;43.546;16.426;2023-03-21T10:20:31;10.10;;;7.40;;
55409;SDS011;41279;43.546;16.426;2023-03-21T10:22:59;9.77;;;7.38;;
55409;SDS011;41279;43.546;16.426;2023-03-21T10:25:29;7.53;;;6.60;;
55409;SDS011;41279;43.546;16.426;2023-03-21T10:27:57;9.13;;;7.32;;
55409;SDS011;41279;43.546;16.426;2023-03-21T10:32:56;9.55;;;7.18;;
55409;SDS011;41279;43.546;16.426;2023-03-21T10:35:29;10.00;;;7.40;;
55409;SDS011;41279;43.546;16.426;2023-03-21T10:37:58;10.25;;;6.90;;
55409;SDS011;41279;43.546;16.426;2023-03-21T10:40:27;8.82;;;6.97;;
55409;SDS011;41279;43.546;16.426;2023-03-21T10:42:55;9.35;;;7.47;;
55409;SDS011;41279;43.546;16.426;2023-03-21T10:45:22;8.90;;;7.43;;
55409;SDS011;41279;43.546;16.426;2023-03-21T10:47:49;9.98;;;7.57;;
55409;SDS011;41279;43.546;16.426;2023-03-21T10:50:18;8.38;;;7.40;;
55409;SDS011;41279;43.546;16.426;2023-03-21T10:52:49;12.80;;;7.20;;
55409;SDS011;41279;43.546;16.426;2023-03-21T10:55:28;9.10;;;7.80;;
55409;SDS011;41279;43.546;16.426;2023-03-21T10:58:00;8.50;;;7.50;;
55409;SDS011;41279;43.546;16.426;2023-03-21T11:00:41;14.07;;;7.45;;
55409;SDS011;41279;43.546;16.426;2023-03-21T11:03:22;10.10;;;8.10;;
55409;SDS011;41279;43.546;16.426;2023-03-21T11:06:11;9.20;;;8.15;;
55409;SDS011;41279;43.546;16.426;2023-03-21T11:08:52;9.20;;;7.65;;
55409;SDS011;41279;43.546;16.426;2023-03-21T11:11:23;9.13;;;7.20;;
55409;SDS011;41279;43.546;16.426;2023-03-21T11:13:57;8.82;;;7.45;;
55409;SDS011;41279;43.546;16.426;2023-03-21T11:16:40;10.35;;;7.78;;
55409;SDS011;41279;43.546;16.426;2023-03-21T11:22:06;8.63;;;7.15;;
55409;SDS011;41279;43.546;16.426;2023-03-21T11:24:32;9.98;;;7.68;;
55409;SDS011;41279;43.546;16.426;2023-03-21T11:26:59;8.45;;;7.07;;
55409;SDS011;41279;43.546;16.426;2023-03-21T11:29:37;10.82;;;7.55;;
55409;SDS011;41279;43.546;16.426;2023-03-21T11:32:12;7.88;;;6.97;;
55409;SDS011;41279;43.546;16.426;2023-03-21T11:37:16;9.15;;;6.30;;
55409;SDS011;41279;43.546;16.426;2023-03-21T11:40:27;10.85;;;6.78;;
55409;SDS011;41279;43.546;16.426;2023-03-21T11:47:58;8.30;;;6.60;;
55409;SDS011;41279;43.546;16.426;2023-03-21T11:50:30;8.27;;;5.60;;
55409;SDS011;41279;43.546;16.426;2023-03-21T12:09:28;10.10;;;5.28;;
55409;SDS011;41279;43.546;16.426;2023-03-21T12:17:47;7.88;;;5.50;;
55409;SDS011;41279;43.546;16.426;2023-03-21T12:25:44;8.68;;;5.95;;
55409;SDS011;41279;43.546;16.426;2023-03-21T12:28:40;8.00;;;5.85;;
55409;SDS011;41279;43.546;16.426;2023-03-21T12:36:59;7.93;;;5.60;;
55409;SDS011;41279;43.546;16.426;2023-03-21T12:45:20;7.53;;;5.97;;
55409;SDS011;41279;43.546;16.426;2023-03-21T12:47:55;8.85;;;6.22;;
55409;SDS011;41279;43.546;16.426;2023-03-21T12:50:31;7.28;;;6.32;;
55409;SDS011;41279;43.546;16.426;2023-03-21T12:53:26;7.57;;;6.78;;
55409;SDS011;41279;43.546;16.426;2023-03-21T12:56:00;8.52;;;7.10;;
55409;SDS011;41279;43.546;16.426;2023-03-21T12:58:29;8.55;;;7.20;;
55409;SDS011;41279;43.546;16.426;2023-03-21T13:01:06;10.45;;;7.28;;
55409;SDS011;41279;43.546;16.426;2023-03-21T13:03:36;8.50;;;7.55;;
55409;SDS011;41279;43.546;16.426;2023-03-21T13:06:09;8.52;;;7.47;;
55409;SDS011;41279;43.546;16.426;2023-03-21T13:08:40;10.68;;;7.75;;
55409;SDS011;41279;43.546;16.426;2023-03-21T13:11:23;9.10;;;7.72;;
55409;SDS011;41279;43.546;16.426;2023-03-21T13:19:04;9.10;;;6.47;;
55409;SDS011;41279;43.546;16.426;2023-03-21T13:24:48;9.65;;;6.40;;
55409;SDS011;41279;43.546;16.426;2023-03-21T13:27:27;7.53;;;6.45;;
55409;SDS011;41279;43.546;16.426;2023-03-21T13:29:59;8.45;;;6.20;;
55409;SDS011;41279;43.546;16.426;2023-03-21T13:32:29;8.02;;;6.20;;
55409;SDS011;41279;43.546;16.426;2023-03-21T13:37:41;8.32;;;5.70;;
55409;SDS011;41279;43.546;16.426;2023-03-21T13:40:24;7.70;;;5.97;;
55409;SDS011;41279;43.546;16.426;2023-03-21T13:42:53;10.68;;;6.88;;
55409;SDS011;41279;43.546;16.426;2023-03-21T13:45:33;6.60;;;5.72;;
55409;SDS011;41279;43.546;16.426;2023-03-21T13:51:02;7.15;;;6.15;;
55409;SDS011;41279;43.546;16.426;2023-03-21T14:01:30;6.47;;;5.40;;
55409;SDS011;41279;43.546;16.426;2023-03-21T14:04:19;8.38;;;6.10;;
55409;SDS011;41279;43.546;16.426;2023-03-21T14:06:53;7.60;;;5.53;;
55409;SDS011;41279;43.546;16.426;2023-03-21T14:09:26;6.95;;;5.65;;
55409;SDS011;41279;43.546;16.426;2023-03-21T14:11:53;8.73;;;6.10;;
55409;SDS011;41279;43.546;16.426;2023-03-21T14:14:20;8.35;;;6.22;;
55409;SDS011;41279;43.546;16.426;2023-03-21T14:16:51;8.05;;;6.60;;
55409;SDS011;41279;43.546;16.426;2023-03-21T14:19:17;7.43;;;5.60;;
55409;SDS011;41279;43.546;16.426;2023-03-21T14:21:47;7.63;;;6.13;;
55409;SDS011;41279;43.546;16.426;2023-03-21T14:24:16;8.23;;;6.13;;
55409;SDS011;41279;43.546;16.426;2023-03-21T14:26:44;7.82;;;6.10;;
55409;SDS011;41279;43.546;16.426;2023-03-21T14:29:33;9.57;;;7.28;;
55409;SDS011;41279;43.546;16.426;2023-03-21T14:31:59;7.07;;;6.18;;
55409;SDS011;41279;43.546;16.426;2023-03-21T14:34:27;6.95;;;5.90;;
55409;SDS011;41279;43.546;16.426;2023-03-21T14:36:55;6.32;;;5.68;;
55409;SDS011;41279;43.546;16.426;2023-03-21T14:39:22;7.68;;;6.00;;
55409;SDS011;41279;43.546;16.426;2023-03-21T14:41:52;6.97;;;5.85;;
55409;SDS011;41279;43.546;16.426;2023-03-21T14:44:21;8.85;;;6.18;;
55409;SDS011;41279;43.546;16.426;2023-03-21T14:46:59;7.70;;;6.10;;
55409;SDS011;41279;43.546;16.426;2023-03-21T14:51:52;7.63;;;6.18;;
55409;SDS011;41279;43.546;16.426;2023-03-21T14:54:20;7.72;;;5.93;;
55409;SDS011;41279;43.546;16.426;2023-03-21T14:57:02;8.68;;;5.90;;
55409;SDS011;41279;43.546;16.426;2023-03-21T14:59:32;6.65;;;5.47;;
55409;SDS011;41279;43.546;16.426;2023-03-21T15:02:01;7.80;;;5.50;;
55409;SDS011;41279;43.546;16.426;2023-03-21T15:04:29;8.90;;;5.50;;
55409;SDS011;41279;43.546;16.426;2023-03-21T15:06:59;6.50;;;5.15;;
55409;SDS011;41279;43.546;16.426;2023-03-21T15:09:29;8.18;;;4.50;;
55409;SDS011;41279;43.546;16.426;2023-03-21T15:11:58;7.45;;;5.22;;
55409;SDS011;41279;43.546;16.426;2023-03-21T15:14:25;9.35;;;5.70;;
55409;SDS011;41279;43.546;16.426;2023-03-21T15:16:54;9.73;;;5.47;;
55409;SDS011;41279;43.546;16.426;2023-03-21T15:19:29;8.40;;;5.15;;
55409;SDS011;41279;43.546;16.426;2023-03-21T15:22:05;9.15;;;5.05;;
55409;SDS011;41279;43.546;16.426;2023-03-21T15:24:39;9.35;;;5.05;;
55409;SDS011;41279;43.546;16.426;2023-03-21T15:27:15;6.45;;;4.30;;
55409;SDS011;41279;43.546;16.426;2023-03-21T15:29:43;9.00;;;4.85;;
55409;SDS011;41279;43.546;16.426;2023-03-21T15:32:16;6.65;;;4.65;;
55409;SDS011;41279;43.546;16.426;2023-03-21T15:34:44;8.43;;;4.82;;
55409;SDS011;41279;43.546;16.426;2023-03-21T15:37:14;9.02;;;5.03;;
55409;SDS011;41279;43.546;16.426;2023-03-21T15:39:43;9.95;;;5.30;;
55409;SDS011;41279;43.546;16.426;2023-03-21T15:44:54;7.63;;;4.70;;
55409;SDS011;41279;43.546;16.426;2023-03-21T15:50:24;9.77;;;4.70;;
55409;SDS011;41279;43.546;16.426;2023-03-21T15:52:50;8.48;;;5.00;;
55409;SDS011;41279;43.546;16.426;2023-03-21T15:55:41;7.40;;;4.45;;
55409;SDS011;41279;43.546;16.426;2023-03-21T15:58:20;6.97;;;5.00;;
55409;SDS011;41279;43.546;16.426;2023-03-21T16:01:01;8.20;;;5.30;;
55409;SDS011;41279;43.546;16.426;2023-03-21T16:03:31;9.85;;;5.15;;
55409;SDS011;41279;43.546;16.426;2023-03-21T16:06:15;7.32;;;5.05;;
55409;SDS011;41279;43.546;16.426;2023-03-21T16:08:45;8.50;;;5.65;;
55409;SDS011;41279;43.546;16.426;2023-03-21T16:13:43;7.90;;;5.38;;
55409;SDS011;41279;43.546;16.426;2023-03-21T16:16:13;7.80;;;4.70;;
55409;SDS011;41279;43.546;16.426;2023-03-21T16:18:41;8.55;;;4.57;;
55409;SDS011;41279;43.546;16.426;2023-03-21T16:21:10;9.15;;;4.70;;
55409;SDS011;41279;43.546;16.426;2023-03-21T16:23:37;6.40;;;4.00;;
55409;SDS011;41279;43.546;16.426;2023-03-21T16:26:02;10.88;;;5.07;;
55409;SDS011;41279;43.546;16.426;2023-03-21T16:28:29;8.65;;;4.90;;
55409;SDS011;41279;43.546;16.426;2023-03-21T16:30:55;7.95;;;4.70;;
55409;SDS011;41279;43.546;16.426;2023-03-21T16:33:20;7.05;;;4.60;;
55409;SDS011;41279;43.546;16.426;2023-03-21T16:35:46;9.38;;;4.80;;
55409;SDS011;41279;43.546;16.426;2023-03-21T16:38:12;10.00;;;5.03;;
55409;SDS011;41279;43.546;16.426;2023-03-21T16:40:37;8.05;;;4.82;;
55409;SDS011;41279;43.546;16.426;2023-03-21T16:43:05;10.88;;;4.80;;
55409;SDS011;41279;43.546;16.426;2023-03-21T16:45:32;11.50;;;5.20;;
55409;SDS011;41279;43.546;16.426;2023-03-21T16:47:57;14.18;;;5.22;;
55409;SDS011;41279;43.546;16.426;2023-03-21T16:52:54;8.52;;;5.32;;
55409;SDS011;41279;43.546;16.426;2023-03-21T16:55:20;8.40;;;4.85;;
55409;SDS011;41279;43.546;16.426;2023-03-21T16:57:46;7.63;;;5.53;;
55409;SDS011;41279;43.546;16.426;2023-03-21T17:00:15;8.90;;;5.47;;
55409;SDS011;41279;43.546;16.426;2023-03-21T17:02:49;10.43;;;5.90;;
55409;SDS011;41279;43.546;16.426;2023-03-21T17:05:16;9.60;;;6.28;;
55409;SDS011;41279;43.546;16.426;2023-03-21T17:07:41;9.60;;;6.57;;
55409;SDS011;41279;43.546;16.426;2023-03-21T17:10:15;10.90;;;7.45;;
55409;SDS011;41279;43.546;16.426;2023-03-21T17:12:43;11.85;;;7.25;;
55409;SDS011;41279;43.546;16.426;2023-03-21T17:15:09;15.40;;;9.75;;
55409;SDS011;41279;43.546;16.426;2023-03-21T17:17:35;21.60;;;17.63;;
55409;SDS011;41279;43.546;16.426;2023-03-21T17:20:01;29.65;;;20.73;;
55409;SDS011;41279;43.546;16.426;2023-03-21T17:22:35;32.42;;;24.33;;
55409;SDS011;41279;43.546;16.426;2023-03-21T17:25:01;15.77;;;9.73;;
55409;SDS011;41279;43.546;16.426;2023-03-21T17:27:27;10.77;;;6.13;;
55409;SDS011;41279;43.546;16.426;2023-03-21T17:29:52;10.10;;;6.50;;
55409;SDS011;41279;43.546;16.426;2023-03-21T17:32:17;12.38;;;7.38;;
55409;SDS011;41279;43.546;16.426;2023-03-21T17:34:43;13.65;;;6.68;;
55409;SDS011;41279;43.546;16.426;2023-03-21T17:37:09;12.80;;;7.53;;
55409;SDS011;41279;43.546;16.426;2023-03-21T17:39:35;15.65;;;7.70;;
55409;SDS011;41279;43.546;16.426;2023-03-21T17:42:00;15.23;;;7.30;;
55409;SDS011;41279;43.546;16.426;2023-03-21T17:44:25;14.60;;;7.45;;
55409;SDS011;41279;43.546;16.426;2023-03-21T17:46:51;12.60;;;6.72;;
55409;SDS011;41279;43.546;16.426;2023-03-21T17:49:17;9.70;;;5.53;;
55409;SDS011;41279;43.546;16.426;2023-03-21T17:51:43;8.52;;;5.68;;
55409;SDS011;41279;43.546;16.426;2023-03-21T17:54:10;14.20;;;6.68;;
55409;SDS011;41279;43.546;16.426;2023-03-21T17:56:36;9.52;;;5.70;;
55409;SDS011;41279;43.546;16.426;2023-03-21T17:59:05;10.20;;;6.30;;
55409;SDS011;41279;43.546;16.426;2023-03-21T18:01:34;10.20;;;6.47;;
55409;SDS011;41279;43.546;16.426;2023-03-21T18:04:00;9.35;;;5.65;;
55409;SDS011;41279;43.546;16.426;2023-03-21T18:06:29;10.30;;;6.13;;
55409;SDS011;41279;43.546;16.426;2023-03-21T18:08:55;12.18;;;6.20;;
55409;SDS011;41279;43.546;16.426;2023-03-21T18:11:22;9.13;;;5.07;;
55409;SDS011;41279;43.546;16.426;2023-03-21T18:13:48;9.13;;;5.70;;
55409;SDS011;41279;43.546;16.426;2023-03-21T18:16:17;11.50;;;6.05;;
55409;SDS011;41279;43.546;16.426;2023-03-21T18:18:45;15.90;;;6.00;;
55409;SDS011;41279;43.546;16.426;2023-03-21T18:21:11;11.88;;;6.10;;
55409;SDS011;41279;43.546;16.426;2023-03-21T18:23:38;12.02;;;5.97;;
55409;SDS011;41279;43.546;16.426;2023-03-21T18:26:04;11.93;;;7.25;;
55409;SDS011;41279;43.546;16.426;2023-03-21T18:28:31;11.05;;;6.20;;
55409;SDS011;41279;43.546;16.426;2023-03-21T18:30:59;12.50;;;6.75;;
55409;SDS011;41279;43.546;16.426;2023-03-21T18:33:25;9.98;;;6.13;;
55409;SDS011;41279;43.546;16.426;2023-03-21T18:35:51;14.00;;;8.15;;
55409;SDS011;41279;43.546;16.426;2023-03-21T18:38:16;12.50;;;6.95;;
55409;SDS011;41279;43.546;16.426;2023-03-21T18:40:42;13.10;;;7.43;;
55409;SDS011;41279;43.546;16.426;2023-03-21T18:43:07;13.52;;;7.50;;
55409;SDS011;41279;43.546;16.426;2023-03-21T18:45:33;12.57;;;7.63;;
55409;SDS011;41279;43.546;16.426;2023-03-21T18:47:58;12.35;;;8.00;;
55409;SDS011;41279;43.546;16.426;2023-03-21T18:50:24;12.25;;;7.28;;
55409;SDS011;41279;43.546;16.426;2023-03-21T18:52:49;9.93;;;6.60;;
55409;SDS011;41279;43.546;16.426;2023-03-21T18:55:15;11.80;;;7.78;;
55409;SDS011;41279;43.546;16.426;2023-03-21T18:57:41;13.20;;;7.95;;
55409;SDS011;41279;43.546;16.426;2023-03-21T19:00:11;11.05;;;7.28;;
55409;SDS011;41279;43.546;16.426;2023-03-21T19:02:42;10.52;;;8.05;;
55409;SDS011;41279;43.546;16.426;2023-03-21T19:05:10;13.15;;;7.90;;
55409;SDS011;41279;43.546;16.426;2023-03-21T19:07:36;12.48;;;7.35;;
55409;SDS011;41279;43.546;16.426;2023-03-21T19:10:02;14.02;;;6.90;;
55409;SDS011;41279;43.546;16.426;2023-03-21T19:12:28;13.35;;;7.95;;
55409;SDS011;41279;43.546;16.426;2023-03-21T19:14:54;17.92;;;8.55;;
55409;SDS011;41279;43.546;16.426;2023-03-21T19:17:19;14.38;;;8.90;;
55409;SDS011;41279;43.546;16.426;2023-03-21T19:19:45;11.82;;;8.70;;
55409;SDS011;41279;43.546;16.426;2023-03-21T19:22:11;13.98;;;8.98;;
55409;SDS011;41279;43.546;16.426;2023-03-21T19:24:37;16.58;;;8.90;;
55409;SDS011;41279;43.546;16.426;2023-03-21T19:27:04;15.43;;;8.93;;
55409;SDS011;41279;43.546;16.426;2023-03-21T19:29:29;15.25;;;8.60;;
55409;SDS011;41279;43.546;16.426;2023-03-21T19:31:55;17.20;;;9.65;;
55409;SDS011;41279;43.546;16.426;2023-03-21T19:34:21;18.75;;;11.85;;
55409;SDS011;41279;43.546;16.426;2023-03-21T19:36:46;19.80;;;11.20;;
55409;SDS011;41279;43.546;16.426;2023-03-21T19:39:12;17.88;;;10.02;;
55409;SDS011;41279;43.546;16.426;2023-03-21T19:41:37;21.10;;;10.93;;
55409;SDS011;41279;43.546;16.426;2023-03-21T19:44:03;26.67;;;13.43;;
55409;SDS011;41279;43.546;16.426;2023-03-21T19:46:29;20.70;;;11.45;;
55409;SDS011;41279;43.546;16.426;2023-03-21T19:48:55;14.75;;;9.85;;
55409;SDS011;41279;43.546;16.426;2023-03-21T19:51:21;17.02;;;10.23;;
55409;SDS011;41279;43.546;16.426;2023-03-21T19:53:47;18.45;;;11.18;;
55409;SDS011;41279;43.546;16.426;2023-03-21T19:56:13;19.30;;;10.30;;
55409;SDS011;41279;43.546;16.426;2023-03-21T19:58:39;15.20;;;10.13;;
55409;SDS011;41279;43.546;16.426;2023-03-21T20:01:06;21.45;;;12.30;;
55409;SDS011;41279;43.546;16.426;2023-03-21T20:03:32;18.75;;;11.40;;
55409;SDS011;41279;43.546;16.426;2023-03-21T20:06:01;17.23;;;10.75;;
55409;SDS011;41279;43.546;16.426;2023-03-21T20:08:28;17.85;;;10.43;;
55409;SDS011;41279;43.546;16.426;2023-03-21T20:10:54;18.60;;;10.82;;
55409;SDS011;41279;43.546;16.426;2023-03-21T20:13:19;17.98;;;9.95;;
55409;SDS011;41279;43.546;16.426;2023-03-21T20:15:51;15.88;;;9.93;;
55409;SDS011;41279;43.546;16.426;2023-03-21T20:18:17;21.42;;;12.88;;
55409;SDS011;41279;43.546;16.426;2023-03-21T20:20:44;17.58;;;11.57;;
55409;SDS011;41279;43.546;16.426;2023-03-21T20:23:10;21.73;;;14.13;;
55409;SDS011;41279;43.546;16.426;2023-03-21T20:25:39;20.27;;;13.65;;
55409;SDS011;41279;43.546;16.426;2023-03-21T20:28:05;20.98;;;14.55;;
55409;SDS011;41279;43.546;16.426;2023-03-21T20:30:31;18.10;;;12.73;;
55409;SDS011;41279;43.546;16.426;2023-03-21T20:32:56;17.33;;;12.48;;
55409;SDS011;41279;43.546;16.426;2023-03-21T20:35:22;18.50;;;11.05;;
55409;SDS011;41279;43.546;16.426;2023-03-21T20:37:47;17.90;;;11.57;;
55409;SDS011;41279;43.546;16.426;2023-03-21T20:40:18;18.40;;;11.60;;
55409;SDS011;41279;43.546;16.426;2023-03-21T20:42:44;14.82;;;10.13;;
55409;SDS011;41279;43.546;16.426;2023-03-21T20:45:11;16.52;;;10.57;;
55409;SDS011;41279;43.546;16.426;2023-03-21T20:47:38;17.13;;;10.50;;
55409;SDS011;41279;43.546;16.426;2023-03-21T20:50:05;17.73;;;10.05;;
55409;SDS011;41279;43.546;16.426;2023-03-21T20:52:32;17.95;;;9.75;;
55409;SDS011;41279;43.546;16.426;2023-03-21T20:54:57;16.45;;;9.50;;
55409;SDS011;41279;43.546;16.426;2023-03-21T20:57:23;17.80;;;10.23;;
55409;SDS011;41279;43.546;16.426;2023-03-21T20:59:51;20.33;;;10.13;;
55409;SDS011;41279;43.546;16.426;2023-03-21T21:02:19;16.63;;;10.27;;
55409;SDS011;41279;43.546;16.426;2023-03-21T21:04:45;14.85;;;9.15;;
55409;SDS011;41279;43.546;16.426;2023-03-21T21:07:12;13.27;;;10.20;;
55409;SDS011;41279;43.546;16.426;2023-03-21T21:09:46;14.82;;;9.52;;
55409;SDS011;41279;43.546;16.426;2023-03-21T21:12:13;13.77;;;8.82;;
55409;SDS011;41279;43.546;16.426;2023-03-21T21:14:40;16.65;;;8.50;;
55409;SDS011;41279;43.546;16.426;2023-03-21T21:17:06;14.13;;;8.35;;
55409;SDS011;41279;43.546;16.426;2023-03-21T21:19:32;12.02;;;7.55;;
55409;SDS011;41279;43.546;16.426;2023-03-21T21:21:59;11.13;;;7.65;;
55409;SDS011;41279;43.546;16.426;2023-03-21T21:24:25;10.55;;;6.97;;
55409;SDS011;41279;43.546;16.426;2023-03-21T21:26:50;13.18;;;7.70;;
55409;SDS011;41279;43.546;16.426;2023-03-21T21:29:16;9.50;;;6.38;;
55409;SDS011;41279;43.546;16.426;2023-03-21T21:31:42;12.27;;;7.10;;
55409;SDS011;41279;43.546;16.426;2023-03-21T21:34:10;10.88;;;7.45;;
55409;SDS011;41279;43.546;16.426;2023-03-21T21:36:36;13.75;;;8.90;;
55409;SDS011;41279;43.546;16.426;2023-03-21T21:39:02;13.73;;;8.80;;
55409;SDS011;41279;43.546;16.426;2023-03-21T21:41:28;12.88;;;8.90;;
55409;SDS011;41279;43.546;16.426;2023-03-21T21:43:54;13.63;;;8.63;;
55409;SDS011;41279;43.546;16.426;2023-03-21T21:46:19;14.18;;;9.23;;
55409;SDS011;41279;43.546;16.426;2023-03-21T21:48:44;14.10;;;9.10;;
55409;SDS011;41279;43.546;16.426;2023-03-21T21:51:10;12.52;;;8.50;;
55409;SDS011;41279;43.546;16.426;2023-03-21T21:53:35;13.75;;;7.93;;
55409;SDS011;41279;43.546;16.426;2023-03-21T21:56:02;10.48;;;7.60;;
55409;SDS011;41279;43.546;16.426;2023-03-21T21:58:30;12.75;;;7.85;;
55409;SDS011;41279;43.546;16.426;2023-03-21T22:00:58;13.18;;;7.82;;
55409;SDS011;41279;43.546;16.426;2023-03-21T22:03:24;12.98;;;7.90;;
55409;SDS011;41279;43.546;16.426;2023-03-21T22:05:51;11.35;;;8.00;;
55409;SDS011;41279;43.546;16.426;2023-03-21T22:08:17;11.10;;;7.75;;
55409;SDS011;41279;43.546;16.426;2023-03-21T22:10:44;12.43;;;7.75;;
55409;SDS011;41279;43.546;16.426;2023-03-21T22:13:11;12.32;;;7.88;;
55409;SDS011;41279;43.546;16.426;2023-03-21T22:15:37;11.40;;;7.60;;
55409;SDS011;41279;43.546;16.426;2023-03-21T22:18:02;13.13;;;8.20;;
55409;SDS011;41279;43.546;16.426;2023-03-21T22:20:28;11.90;;;7.72;;
55409;SDS011;41279;43.546;16.426;2023-03-21T22:22:53;11.07;;;7.55;;
55409;SDS011;41279;43.546;16.426;2023-03-21T22:25:20;12.95;;;7.40;;
55409;SDS011;41279;43.546;16.426;2023-03-21T22:27:46;11.93;;;7.78;;
55409;SDS011;41279;43.546;16.426;2023-03-21T22:30:13;10.20;;;7.20;;
55409;SDS011;41279;43.546;16.426;2023-03-21T22:32:41;12.35;;;7.95;;
55409;SDS011;41279;43.546;16.426;2023-03-21T22:35:08;11.18;;;8.43;;
55409;SDS011;41279;43.546;16.426;2023-03-21T22:37:35;13.98;;;8.23;;
55409;SDS011;41279;43.546;16.426;2023-03-21T22:40:02;13.45;;;8.35;;
55409;SDS011;41279;43.546;16.426;2023-03-21T22:42:30;13.15;;;9.15;;
55409;SDS011;41279;43.546;16.426;2023-03-21T22:44:56;13.38;;;9.10;;
55409;SDS011;41279;43.546;16.426;2023-03-21T22:47:21;14.10;;;8.65;;
55409;SDS011;41279;43.546;16.426;2023-03-21T22:49:47;16.90;;;8.98;;
55409;SDS011;41279;43.546;16.426;2023-03-21T22:52:12;15.05;;;8.60;;
55409;SDS011;41279;43.546;16.426;2023-03-21T22:54:38;14.70;;;8.68;;
55409;SDS011;41279;43.546;16.426;2023-03-21T22:57:04;13.57;;;8.80;;
55409;SDS011;41279;43.546;16.426;2023-03-21T22:59:31;15.27;;;9.65;;
55409;SDS011;41279;43.546;16.426;2023-03-21T23:01:57;19.17;;;11.07;;
55409;SDS011;41279;43.546;16.426;2023-03-21T23:04:23;18.98;;;10.63;;
55409;SDS011;41279;43.546;16.426;2023-03-21T23:06:50;15.63;;;10.23;;
55409;SDS011;41279;43.546;16.426;2023-03-21T23:09:15;16.10;;;10.35;;
55409;SDS011;41279;43.546;16.426;2023-03-21T23:11:41;17.00;;;9.40;;